Sunday, July 22, 2018, 12:30 AM EDT
Back to Local

KIJD, Willimantic Windham Airport

Location: North Windham, CT, United States Lat: 41.75
Local Time: 12:30 AM EDT ( 4:30 GMT) Lon: -72.183
Time Zone: US/Eastern Elev: 246 ft

Show me the last for .
Show Decoded

2018-07-21 23:52 METAR KIJD 220352Z AUTO 06010KT 10SM FEW034 BKN046 OVC065 21/16 A3005 RMK AO2
                 SLP175 T02060161 =
2018-07-21 22:52 METAR KIJD 220252Z AUTO 08007KT 10SM BKN038 OVC047 21/17 A3007 RMK AO2 SLP180
                 T02060167 58004 =
2018-07-21 21:52 METAR KIJD 220152Z AUTO 09004KT 10SM BKN060 21/17 A3008 RMK AO2 SLP184 T02110172
                 =
2018-07-21 20:52 METAR KIJD 220052Z AUTO VRB04KT 10SM CLR 22/17 A3008 RMK AO2 SLP183 T02170167 =
2018-07-21 19:52 METAR KIJD 212352Z AUTO VRB03KT 10SM SCT050 BKN065 23/17 A3008 RMK AO2 SLP186
                 T02280172 10267 20228 53002 =
2018-07-21 18:52 METAR KIJD 212252Z AUTO VRB05KT 10SM FEW055 23/17 A3008 RMK AO2 SLP184 T02330167
                 =
2018-07-21 17:52 METAR KIJD 212152Z AUTO 09006KT 10SM CLR 24/16 A3007 RMK AO2 SLP180 T02440161 =
2018-07-21 16:52 METAR KIJD 212052Z AUTO VRB04KT 10SM CLR 25/15 A3008 RMK AO2 SLP184 T02500150
                 55008 =
2018-07-21 15:52 METAR KIJD 211952Z AUTO 15008KT 120V190 10SM CLR 26/14 A3008 RMK AO2 SLP183
                 T02610139 =
2018-07-21 14:52 METAR KIJD 211852Z AUTO 13008KT 10SM FEW048 26/14 A3009 RMK AO2 SLP187 T02610139
                 =
2018-07-21 13:52 METAR KIJD 211752Z AUTO VRB06KT 10SM CLR 26/14 A3010 RMK AO2 SLP191 T02610144
                 10261 20172 58017 =
2018-07-21 12:52 METAR KIJD 211652Z AUTO 16005G15KT 10SM SCT043 25/14 A3013 RMK AO2 SLP202
                 T02500139 =
2018-07-21 11:52 METAR KIJD 211552Z AUTO 10SM CLR 24/14 A3015 RMK AO2 SLP206 T02390139 =
2018-07-21 10:52 METAR KIJD 211452Z AUTO VRB04KT 10SM CLR 23/13 A3015 RMK AO2 SLP209 T02280133
                 58001 =
2018-07-21 09:52 METAR KIJD 211352Z AUTO 14007KT 10SM CLR 21/12 A3015 RMK AO2 SLP209 T02110122 =
2018-07-21 08:52 METAR KIJD 211252Z AUTO 17004KT 10SM CLR 20/14 A3017 RMK AO2 SLP214 T02000139 =
2018-07-21 07:52 METAR KIJD 211152Z AUTO 00000KT 10SM CLR 17/16 A3016 RMK AO2 SLP210 T01720156
                 10172 20139 55000 =
2018-07-21 06:52 METAR KIJD 211052Z AUTO 00000KT 10SM CLR 15/14 A3015 RMK AO2 SLP208 T01500144 =
2018-07-21 05:52 METAR KIJD 210952Z AUTO 00000KT 10SM FEW002 14/13 A3016 RMK AO2 SLP211 T01390133
                 =
2018-07-21 04:52 METAR KIJD 210852Z AUTO 00000KT 10SM SCT002 14/14 A3016 RMK AO2 SLP210 T01440139
                 53003 =
2018-07-21 04:24 METAR KIJD 210824Z AUTO 00000KT 10SM BKN002 15/14 A3015 RMK AO2 T01500144 =
2018-07-21 03:59 METAR KIJD 210759Z AUTO 00000KT 10SM FEW002 15/14 A3014 RMK AO2 T01500144 =
2018-07-21 03:52 METAR KIJD 210752Z AUTO 01003KT 10SM CLR 15/14 A3015 RMK AO2 SLP206 T01500144 =
2018-07-21 02:52 METAR KIJD 210652Z AUTO 00000KT 10SM CLR 16/15 A3015 RMK AO2 SLP207 T01610150 =
2018-07-21 01:52 METAR KIJD 210552Z AUTO 00000KT 10SM CLR 17/16 A3015 RMK AO2 SLP207 T01670161
                 10244 20161 58005 =
2018-07-21 00:52 METAR KIJD 210452Z AUTO 00000KT 10SM CLR 17/16 A3015 RMK AO2 SLP209 T01720161
                 402890128 =

Support USWX by starting your Amazon purchase here.